createdAt,value
2022-12-17T00:00:51.895Z,4.82
2022-12-17T00:03:37.766Z,6.25
2022-12-17T00:06:23.499Z,5.18
2022-12-17T00:09:08.802Z,5.85
2022-12-17T00:11:54.100Z,5.45
2022-12-17T00:14:41.816Z,6.03
2022-12-17T00:17:28.409Z,5.30
2022-12-17T00:20:13.867Z,5.35
2022-12-17T00:22:59.109Z,6.18
2022-12-17T00:25:44.714Z,6.22
2022-12-17T00:28:30.643Z,5.32
2022-12-17T00:31:16.065Z,4.38
2022-12-17T00:34:02.723Z,5.53
2022-12-17T00:36:48.295Z,5.18
2022-12-17T00:39:33.362Z,6.82
2022-12-17T00:42:18.935Z,5.13
2022-12-17T00:45:03.953Z,5.38
2022-12-17T00:47:49.282Z,4.68
2022-12-17T00:50:36.018Z,4.68
2022-12-17T00:53:21.066Z,5.15
2022-12-17T00:56:06.198Z,4.80
2022-12-17T00:58:51.602Z,4.43
2022-12-17T01:01:37.486Z,4.72
2022-12-17T01:04:37.779Z,4.95
2022-12-17T01:07:24.501Z,4.25
2022-12-17T01:10:10.047Z,4.53
2022-12-17T01:12:56.307Z,4.70
2022-12-17T01:15:41.705Z,4.55
2022-12-17T01:18:38.512Z,3.72
2022-12-17T01:21:24.257Z,3.95
2022-12-17T01:24:11.099Z,4.30
2022-12-17T01:26:56.457Z,4.32
2022-12-17T01:29:41.666Z,4.03
2022-12-17T01:32:23.428Z,4.20
2022-12-17T01:35:08.790Z,4.28
2022-12-17T01:37:54.037Z,4.05
2022-12-17T01:40:40.895Z,4.88
2022-12-17T01:43:30.832Z,3.53
2022-12-17T01:46:16.538Z,3.38
2022-12-17T01:49:05.622Z,3.35
2022-12-17T01:51:53.153Z,3.40
2022-12-17T01:54:38.765Z,3.38
2022-12-17T01:57:26.183Z,3.70
2022-12-17T02:00:15.668Z,3.55
2022-12-17T02:06:08.658Z,3.40
2022-12-17T02:09:03.169Z,3.53
2022-12-17T02:11:59.225Z,4.88
2022-12-17T02:14:52.914Z,3.53
2022-12-17T02:17:45.522Z,3.70
2022-12-17T02:20:40.945Z,3.30
2022-12-17T02:23:38.613Z,3.78
2022-12-17T02:26:30.840Z,5.57
2022-12-17T02:29:20.756Z,4.65
2022-12-17T02:32:08.212Z,4.82
2022-12-17T02:35:02.418Z,4.13
2022-12-17T02:37:53.256Z,3.63
2022-12-17T02:40:40.975Z,4.15
2022-12-17T02:43:27.376Z,4.15
2022-12-17T02:46:15.047Z,4.35
2022-12-17T02:49:01.207Z,5.07
2022-12-17T02:51:47.221Z,5.75
2022-12-17T02:54:32.399Z,5.20
2022-12-17T02:57:18.457Z,5.15
2022-12-17T03:00:03.945Z,5.05
2022-12-17T03:02:51.400Z,5.05
2022-12-17T03:05:51.174Z,4.75
2022-12-17T03:11:21.552Z,6.10
2022-12-17T03:14:07.030Z,5.78
2022-12-17T03:16:52.295Z,6.72
2022-12-17T03:19:42.155Z,6.45
2022-12-17T03:22:27.510Z,5.72
2022-12-17T03:25:12.880Z,6.03
2022-12-17T03:27:58.466Z,6.38
2022-12-17T03:30:48.661Z,5.80
2022-12-17T03:33:34.814Z,6.10
2022-12-17T03:36:22.580Z,7.43
2022-12-17T03:39:07.585Z,5.80
2022-12-17T03:41:52.831Z,6.00
2022-12-17T03:44:38.288Z,6.13
2022-12-17T03:47:23.569Z,5.65
2022-12-17T03:50:09.156Z,5.18
2022-12-17T03:52:56.424Z,5.50
2022-12-17T03:55:41.929Z,5.15
2022-12-17T03:58:27.187Z,4.88
2022-12-17T04:01:12.487Z,4.32
2022-12-17T04:03:59.694Z,6.30
2022-12-17T04:06:45.079Z,5.53
2022-12-17T04:09:32.173Z,4.60
2022-12-17T04:12:17.292Z,5.57
2022-12-17T04:15:02.830Z,5.25
2022-12-17T04:17:48.207Z,5.38
2022-12-17T04:20:33.629Z,4.95
2022-12-17T04:23:19.156Z,4.88
2022-12-17T04:26:06.167Z,4.78
2022-12-17T04:28:51.395Z,4.90
2022-12-17T04:31:36.419Z,4.35
2022-12-17T04:34:21.621Z,4.13
2022-12-17T04:37:06.996Z,5.90
2022-12-17T04:39:52.212Z,4.55
2022-12-17T04:42:39.331Z,3.90
2022-12-17T04:45:25.798Z,4.55
2022-12-17T04:48:19.879Z,4.53
2022-12-17T04:51:05.292Z,5.47
2022-12-17T04:53:50.535Z,7.72
2022-12-17T04:56:38.773Z,5.85
2022-12-17T04:59:25.576Z,13.00
2022-12-17T05:02:10.906Z,14.30
2022-12-17T05:04:56.417Z,14.63
2022-12-17T05:07:41.957Z,5.60
2022-12-17T05:10:27.854Z,26.90
2022-12-17T05:13:16.774Z,8.75
2022-12-17T05:16:04.337Z,61.88
2022-12-17T05:18:54.965Z,13.25
2022-12-17T05:21:40.301Z,13.30
2022-12-17T05:24:25.612Z,4.68
2022-12-17T05:27:11.059Z,10.07
2022-12-17T05:29:56.314Z,12.73
2022-12-17T05:32:43.314Z,20.33
2022-12-17T05:35:28.796Z,38.90
2022-12-17T05:38:21.007Z,16.00
2022-12-17T05:41:06.054Z,14.90
2022-12-17T05:43:51.391Z,11.15
2022-12-17T05:46:33.220Z,12.52
2022-12-17T05:49:20.265Z,12.70
2022-12-17T05:52:05.563Z,15.68
2022-12-17T05:54:51.543Z,74.07
2022-12-17T05:57:36.869Z,38.90
2022-12-17T06:00:24.940Z,11.77
2022-12-17T06:03:16.467Z,17.30
2022-12-17T06:06:03.401Z,24.60
2022-12-17T06:08:48.926Z,24.77
2022-12-17T06:11:34.235Z,12.65
2022-12-17T06:14:22.753Z,8.45
2022-12-17T06:17:08.284Z,7.97
2022-12-17T06:19:53.355Z,8.20
2022-12-17T06:22:43.000Z,14.82
2022-12-17T06:25:28.309Z,7.85
2022-12-17T06:28:23.066Z,8.02
2022-12-17T06:31:09.878Z,7.70
2022-12-17T06:33:56.313Z,6.32
2022-12-17T06:36:41.701Z,8.35
2022-12-17T06:39:34.468Z,9.48
2022-12-17T06:42:19.938Z,14.35
2022-12-17T06:45:05.383Z,8.43
2022-12-17T06:47:50.677Z,9.00
2022-12-17T06:50:36.011Z,8.40
2022-12-17T06:53:22.378Z,10.45
2022-12-17T06:56:09.020Z,12.10
2022-12-17T06:58:54.450Z,8.98
2022-12-17T07:01:40.379Z,8.70
2022-12-17T07:04:25.857Z,8.43
2022-12-17T07:07:11.288Z,8.43
2022-12-17T07:09:57.261Z,8.52
2022-12-17T07:12:44.053Z,8.60
2022-12-17T07:15:30.113Z,8.90
2022-12-17T07:18:15.995Z,7.53
2022-12-17T07:21:01.670Z,7.15
2022-12-17T07:23:47.189Z,7.25
2022-12-17T07:26:33.030Z,7.18
2022-12-17T07:29:20.004Z,7.55
2022-12-17T07:32:05.468Z,6.95
2022-12-17T07:34:50.901Z,6.57
2022-12-17T07:37:36.325Z,6.57
2022-12-17T07:40:22.246Z,7.20
2022-12-17T07:43:07.715Z,6.05
2022-12-17T07:45:54.548Z,6.55
2022-12-17T07:48:39.798Z,5.85
2022-12-17T07:51:25.224Z,5.93
2022-12-17T07:54:10.458Z,6.93
2022-12-17T07:56:55.872Z,6.85
2022-12-17T07:59:41.144Z,6.95
2022-12-17T08:02:29.859Z,8.75
2022-12-17T08:05:15.409Z,8.17
2022-12-17T08:08:00.750Z,7.47
2022-12-17T08:10:46.357Z,7.28
2022-12-17T08:13:31.489Z,7.53
2022-12-17T08:16:16.883Z,7.57
2022-12-17T08:19:03.704Z,8.43
2022-12-17T08:21:49.014Z,6.68
2022-12-17T08:24:34.111Z,7.97
2022-12-17T08:27:19.486Z,6.47
2022-12-17T08:30:04.806Z,6.90
2022-12-17T08:32:52.596Z,8.38
2022-12-17T08:35:39.251Z,8.15
2022-12-17T08:38:25.133Z,8.00
2022-12-17T08:41:10.557Z,7.15
2022-12-17T08:43:55.784Z,8.05
2022-12-17T08:46:41.221Z,6.97
2022-12-17T08:49:26.432Z,6.38
2022-12-17T08:52:13.630Z,6.70
2022-12-17T08:54:58.758Z,6.72
2022-12-17T08:57:43.714Z,7.97
2022-12-17T09:00:29.897Z,7.20
2022-12-17T09:03:15.757Z,6.65
2022-12-17T09:06:01.501Z,6.53
2022-12-17T09:08:47.670Z,6.88
2022-12-17T09:11:33.520Z,6.85
2022-12-17T09:14:18.774Z,6.63
2022-12-17T09:17:04.420Z,5.22
2022-12-17T09:19:49.538Z,5.93
2022-12-17T09:22:35.097Z,6.05
2022-12-17T09:25:22.085Z,5.53
2022-12-17T09:28:07.461Z,5.35
2022-12-17T09:30:53.046Z,4.65
2022-12-17T09:33:39.207Z,5.10
2022-12-17T09:36:25.861Z,5.13
2022-12-17T09:39:11.237Z,4.65
2022-12-17T09:42:06.844Z,4.50
2022-12-17T09:44:59.609Z,4.47
2022-12-17T09:47:59.292Z,4.13
2022-12-17T09:50:45.566Z,3.55
2022-12-17T09:53:40.044Z,3.88
2022-12-17T09:56:29.595Z,4.13
2022-12-17T09:59:16.904Z,3.70
2022-12-17T10:02:02.801Z,3.72
2022-12-17T10:04:53.324Z,3.63
2022-12-17T10:07:42.073Z,3.30
2022-12-17T10:10:35.840Z,3.40
2022-12-17T10:13:18.016Z,3.75
2022-12-17T10:16:04.819Z,3.45
2022-12-17T10:18:50.735Z,3.83
2022-12-17T10:21:38.078Z,3.50
2022-12-17T10:24:24.547Z,3.10
2022-12-17T10:27:11.207Z,3.30
2022-12-17T10:29:59.509Z,2.97
2022-12-17T10:32:50.182Z,3.35
2022-12-17T10:35:38.560Z,3.17
2022-12-17T10:38:31.607Z,3.15
2022-12-17T10:41:16.845Z,2.38
2022-12-17T10:44:03.355Z,2.80
2022-12-17T10:46:50.717Z,2.22
2022-12-17T10:49:39.369Z,1.98
2022-12-17T10:52:45.601Z,1.95
2022-12-17T10:55:40.695Z,2.22
2022-12-17T10:58:32.414Z,7.25
2022-12-17T11:01:18.953Z,2.22
2022-12-17T11:04:09.817Z,2.58
2022-12-17T11:06:59.956Z,2.03
2022-12-17T11:10:03.724Z,1.65
2022-12-17T11:12:57.665Z,2.20
2022-12-17T11:15:50.094Z,1.75
2022-12-17T11:18:38.793Z,2.10
2022-12-17T11:21:29.170Z,2.28
2022-12-17T11:24:22.395Z,3.13
2022-12-17T11:27:12.215Z,2.20
2022-12-17T11:29:58.034Z,1.60
2022-12-17T11:33:04.207Z,1.73
2022-12-17T11:36:01.709Z,1.50
2022-12-17T11:38:54.779Z,1.63
2022-12-17T11:41:53.869Z,1.30
2022-12-17T11:44:55.315Z,1.17
2022-12-17T11:47:54.894Z,1.17
2022-12-17T11:50:47.111Z,1.77
2022-12-17T11:53:55.731Z,1.25
2022-12-17T11:56:45.258Z,3.20
2022-12-17T11:59:41.842Z,1.63
2022-12-17T12:02:42.084Z,1.50
2022-12-17T12:05:37.701Z,1.52
2022-12-17T12:08:35.623Z,1.40
2022-12-17T12:11:31.561Z,1.80
2022-12-17T12:14:26.262Z,1.92
2022-12-17T12:17:21.765Z,1.75
2022-12-17T12:20:27.309Z,1.63
2022-12-17T12:23:20.900Z,1.70
2022-12-17T12:26:16.639Z,1.33
2022-12-17T12:29:08.109Z,1.42
2022-12-17T12:31:58.686Z,1.50
2022-12-17T12:34:51.997Z,1.48
2022-12-17T12:37:38.995Z,1.80
2022-12-17T12:40:35.119Z,1.35
2022-12-17T12:43:31.110Z,1.58
2022-12-17T12:46:22.072Z,1.73
2022-12-17T12:49:12.913Z,1.67
2022-12-17T12:52:00.653Z,1.02
2022-12-17T12:54:49.256Z,1.48
2022-12-17T12:57:49.716Z,1.20
2022-12-17T13:00:57.545Z,1.30
2022-12-17T13:03:46.703Z,1.15
2022-12-17T13:06:16.462Z,0.75
2022-12-17T13:08:46.134Z,1.90
2022-12-17T13:11:30.285Z,1.80
2022-12-17T13:14:07.150Z,1.75
2022-12-17T13:16:42.775Z,2.05
2022-12-17T13:19:21.416Z,1.20
2022-12-17T13:21:49.903Z,1.48
2022-12-17T13:24:29.042Z,1.33
2022-12-17T13:26:56.947Z,1.50
2022-12-17T13:29:30.227Z,1.25
2022-12-17T13:32:21.151Z,1.30
2022-12-17T13:35:06.961Z,1.00
2022-12-17T13:37:51.233Z,1.20
2022-12-17T13:40:34.734Z,1.20
2022-12-17T13:43:03.674Z,1.45
2022-12-17T13:45:35.763Z,1.42
2022-12-17T13:48:03.826Z,1.60
2022-12-17T13:50:36.147Z,1.60
2022-12-17T13:53:11.456Z,1.27
2022-12-17T13:55:41.095Z,1.10
2022-12-17T13:58:23.038Z,1.20
2022-12-17T14:00:51.091Z,1.55
2022-12-17T14:03:42.847Z,1.23
2022-12-17T14:06:12.840Z,1.60
2022-12-17T14:08:41.876Z,1.08
2022-12-17T14:11:30.706Z,1.50
2022-12-17T14:13:58.974Z,1.30
2022-12-17T14:16:27.154Z,1.20
2022-12-17T14:18:57.359Z,1.48
2022-12-17T14:21:27.358Z,1.50
2022-12-17T14:26:26.137Z,1.17
2022-12-17T14:28:56.055Z,1.27
2022-12-17T14:31:27.550Z,1.13
2022-12-17T14:34:07.651Z,1.42
2022-12-17T14:36:37.741Z,1.17
2022-12-17T14:39:16.441Z,1.55
2022-12-17T14:42:03.408Z,1.27
2022-12-17T14:44:32.241Z,1.35
2022-12-17T14:47:11.557Z,1.13
2022-12-17T14:49:55.362Z,1.48
2022-12-17T14:52:32.080Z,1.48
2022-12-17T14:55:00.166Z,1.60
2022-12-17T14:57:29.529Z,1.33
2022-12-17T14:59:57.659Z,1.25
2022-12-17T15:02:28.502Z,1.67
2022-12-17T15:04:59.059Z,1.50
2022-12-17T15:07:28.741Z,1.55
2022-12-17T15:10:01.307Z,1.85
2022-12-17T15:12:33.254Z,1.27
2022-12-17T15:15:01.253Z,2.10
2022-12-17T15:17:29.177Z,2.03
2022-12-17T15:19:57.025Z,1.77
2022-12-17T15:22:25.150Z,2.22
2022-12-17T15:24:53.060Z,2.10
2022-12-17T15:27:20.993Z,2.38
2022-12-17T15:29:50.329Z,1.98
2022-12-17T15:32:20.385Z,2.35
2022-12-17T15:37:21.023Z,1.98
2022-12-17T15:39:52.101Z,2.08
2022-12-17T15:42:37.466Z,2.45
2022-12-17T15:45:08.188Z,1.98
2022-12-17T15:47:36.130Z,2.28
2022-12-17T15:50:04.340Z,2.35
2022-12-17T15:52:33.020Z,2.10
2022-12-17T15:55:00.921Z,2.30
2022-12-17T15:57:28.833Z,2.00
2022-12-17T15:59:56.797Z,2.20
2022-12-17T16:02:26.291Z,2.50
2022-12-17T16:04:54.409Z,2.78
2022-12-17T16:07:22.341Z,2.30
2022-12-17T16:09:50.249Z,2.83
2022-12-17T16:12:18.194Z,2.65
2022-12-17T16:14:46.108Z,2.08
2022-12-17T16:17:14.045Z,2.60
2022-12-17T16:19:43.810Z,3.03
2022-12-17T16:22:11.802Z,3.00
2022-12-17T16:24:41.023Z,2.90
2022-12-17T16:27:08.980Z,2.63
2022-12-17T16:29:36.850Z,3.08
2022-12-17T16:32:04.941Z,3.00
2022-12-17T16:34:32.869Z,2.88
2022-12-17T16:37:02.210Z,3.13
2022-12-17T16:39:30.159Z,2.95
2022-12-17T16:41:59.813Z,3.25
2022-12-17T16:44:27.934Z,2.90
2022-12-17T16:46:56.029Z,2.67
2022-12-17T16:49:28.057Z,3.35
2022-12-17T16:51:57.669Z,2.25
2022-12-17T16:54:30.633Z,3.03
2022-12-17T16:57:07.500Z,3.38
2022-12-17T16:59:35.402Z,3.92
2022-12-17T17:02:05.807Z,3.30
2022-12-17T17:04:33.844Z,3.83
2022-12-17T17:07:01.793Z,4.00
2022-12-17T17:09:31.175Z,3.75
2022-12-17T17:12:00.411Z,4.25
2022-12-17T17:14:28.469Z,3.97
2022-12-17T17:16:56.853Z,3.65
2022-12-17T17:19:24.763Z,3.30
2022-12-17T17:21:54.066Z,4.25
2022-12-17T17:24:24.228Z,3.55
2022-12-17T17:26:54.980Z,4.35
2022-12-17T17:29:23.783Z,4.03
2022-12-17T17:34:40.195Z,4.72
2022-12-17T17:37:08.219Z,4.90
2022-12-17T17:39:36.225Z,4.53
2022-12-17T17:42:06.111Z,4.53
2022-12-17T17:44:34.085Z,4.78
2022-12-17T17:47:02.310Z,4.85
2022-12-17T17:49:30.309Z,4.38
2022-12-17T17:52:13.596Z,5.25
2022-12-17T17:54:41.533Z,4.78
2022-12-17T17:57:11.766Z,5.22
2022-12-17T17:59:40.443Z,5.00
2022-12-17T18:02:09.063Z,5.15
2022-12-17T18:04:37.353Z,5.68
2022-12-17T18:09:53.371Z,5.45
2022-12-17T18:12:40.366Z,5.72
2022-12-17T18:15:18.166Z,5.50
2022-12-17T18:17:50.328Z,6.18
2022-12-17T18:20:18.582Z,6.25
2022-12-17T18:22:47.254Z,5.72
2022-12-17T18:25:16.069Z,5.88
2022-12-17T18:27:45.583Z,5.30
2022-12-17T18:30:14.361Z,5.85
2022-12-17T18:32:42.324Z,5.75
2022-12-17T18:35:10.945Z,5.95
2022-12-17T18:37:38.867Z,5.82
2022-12-17T18:40:08.422Z,7.38
2022-12-17T18:42:53.530Z,6.55
2022-12-17T18:45:23.039Z,6.25
2022-12-17T18:47:53.645Z,6.53
2022-12-17T18:50:21.448Z,6.45
2022-12-17T18:52:49.401Z,6.65
2022-12-17T18:55:17.602Z,6.90
2022-12-17T18:57:45.572Z,6.63
2022-12-17T19:00:14.892Z,8.02
2022-12-17T19:02:44.525Z,6.55
2022-12-17T19:05:12.595Z,7.22
2022-12-17T19:07:40.492Z,6.82
2022-12-17T19:10:10.814Z,7.47
2022-12-17T19:12:38.709Z,6.63
2022-12-17T19:15:07.419Z,7.78
2022-12-17T19:17:35.383Z,8.10
2022-12-17T19:20:05.698Z,9.13
2022-12-17T19:22:33.680Z,7.40
2022-12-17T19:25:01.676Z,7.95
2022-12-17T19:27:29.864Z,8.18
2022-12-17T19:29:57.814Z,8.55
2022-12-17T19:32:25.891Z,9.00
2022-12-17T19:34:53.743Z,8.75
2022-12-17T19:37:23.044Z,8.63
2022-12-17T19:39:50.897Z,8.93
2022-12-17T19:42:36.587Z,8.80
2022-12-17T19:45:05.894Z,8.18
2022-12-17T19:47:33.870Z,8.88
2022-12-17T19:50:01.795Z,8.80
2022-12-17T19:52:31.168Z,8.48
2022-12-17T19:54:59.133Z,8.68
2022-12-17T19:57:27.046Z,8.07
2022-12-17T19:59:54.909Z,9.30
2022-12-17T20:02:24.983Z,10.02
2022-12-17T20:04:56.398Z,8.00
2022-12-17T20:07:24.393Z,9.77
2022-12-17T20:09:53.900Z,9.38
2022-12-17T20:12:21.793Z,10.23
2022-12-17T20:14:49.693Z,9.93
2022-12-17T20:17:17.710Z,9.93
2022-12-17T20:19:45.673Z,9.43
2022-12-17T20:22:13.587Z,9.82
2022-12-17T20:24:41.558Z,9.55
2022-12-17T20:27:11.803Z,9.77
2022-12-17T20:29:39.805Z,9.50
2022-12-17T20:32:08.592Z,11.35
2022-12-17T20:34:36.553Z,10.63
2022-12-17T20:37:04.477Z,10.23
2022-12-17T20:39:32.470Z,10.45
2022-12-17T20:42:00.709Z,10.05
2022-12-17T20:44:30.049Z,9.50
2022-12-17T20:46:58.183Z,9.93
2022-12-17T20:49:26.060Z,10.30
2022-12-17T20:51:53.982Z,10.25
2022-12-17T20:54:21.826Z,9.75
2022-12-17T20:56:50.028Z,9.30
2022-12-17T20:59:19.389Z,10.60
2022-12-17T21:01:55.566Z,9.73
2022-12-17T21:04:24.583Z,10.43
2022-12-17T21:06:53.022Z,9.90
2022-12-17T21:09:22.563Z,10.48
2022-12-17T21:11:50.543Z,10.38
2022-12-17T21:14:19.507Z,8.90
2022-12-17T21:16:49.169Z,10.60
2022-12-17T21:19:19.051Z,9.82
2022-12-17T21:21:47.119Z,11.60
2022-12-17T21:24:15.061Z,8.60
2022-12-17T21:26:45.329Z,9.80
2022-12-17T21:29:14.411Z,10.35
2022-12-17T21:31:45.077Z,9.68
2022-12-17T21:34:16.913Z,8.98
2022-12-17T21:36:45.231Z,8.98
2022-12-17T21:39:14.672Z,9.82
2022-12-17T21:42:05.310Z,10.05
2022-12-17T21:44:33.321Z,8.90
2022-12-17T21:47:02.203Z,9.00
2022-12-17T21:49:31.894Z,8.05
2022-12-17T21:52:00.599Z,9.82
2022-12-17T21:54:29.629Z,8.35
2022-12-17T21:56:57.687Z,10.13
2022-12-17T21:59:25.593Z,10.07
2022-12-17T22:01:54.347Z,9.60
2022-12-17T22:04:22.507Z,9.10
2022-12-17T22:06:56.019Z,10.73
2022-12-17T22:09:43.711Z,8.77
2022-12-17T22:12:35.884Z,10.45
2022-12-17T22:15:06.462Z,9.77
2022-12-17T22:17:34.925Z,9.32
2022-12-17T22:20:02.928Z,10.70
2022-12-17T22:22:32.778Z,11.20
2022-12-17T22:25:07.569Z,9.23
2022-12-17T22:27:36.240Z,10.95
2022-12-17T22:30:27.753Z,11.07
2022-12-17T22:33:07.573Z,10.43
2022-12-17T22:36:37.992Z,11.13
2022-12-17T22:44:33.412Z,12.27
2022-12-17T22:44:42.605Z,10.55
2022-12-17T22:46:20.672Z,10.23
2022-12-17T22:48:48.550Z,11.20
2022-12-17T22:51:25.709Z,11.27
2022-12-17T22:54:02.876Z,11.00
2022-12-17T22:59:21.137Z,8.88
2022-12-17T23:01:49.211Z,10.90
2022-12-17T23:04:18.170Z,9.68
2022-12-17T23:06:47.093Z,10.18
2022-12-17T23:09:19.093Z,11.13
2022-12-17T23:11:49.880Z,9.75
2022-12-17T23:14:18.265Z,9.90
2022-12-17T23:16:46.481Z,10.73
2022-12-17T23:19:14.477Z,10.60
2022-12-17T23:21:42.379Z,10.88
2022-12-17T23:24:10.639Z,11.63
2022-12-17T23:26:39.926Z,11.07
2022-12-17T23:29:14.921Z,10.98
2022-12-17T23:31:45.605Z,9.98
2022-12-17T23:34:13.657Z,11.50
2022-12-17T23:36:41.833Z,11.10
2022-12-17T23:39:09.867Z,10.48
2022-12-17T23:41:37.860Z,11.10
2022-12-17T23:44:05.907Z,11.82
2022-12-17T23:46:35.267Z,12.25
2022-12-17T23:49:05.219Z,10.93
2022-12-17T23:51:34.021Z,11.23
2022-12-17T23:54:02.146Z,11.43
2022-12-17T23:56:30.225Z,11.15
2022-12-17T23:58:59.997Z,10.82
